Hauptseite
METAR-TAF:

METAR-TAF

Flughäfen :

Kassel, Deutschland

Flughafen Kassel-Calden

Breite: 51-24N, Länge: 009-23E, Höhe: 277 m

Beobachtung

Neuester Wetterbericht von vor 16 Minuten, um 11:20 UTC
Wind 7 kt aus Ost/Nordost, variierte zwischen Nordost und Ost/Südost
Temperatur 12°C
Luftfeuchtigkeit 35%
Luftdruck 1029 hPa
Sichtweite 10 km oder mehr
keine Wolken unter 1500 m und keine Kumulonimbus oder Gewitterwolken

METAR: EDVK 251120Z 07007KT 040V120 CAVOK 12/M03 Q1029

Zeit: 12:36 (11:36 UTC)

Prognose

Neuester Wetterbericht von vor 36 Minuten, um 11:00 UTC
Gültige Prognose vom 25 um 12 UTC bis 25 um 21 UTC
Wind 7 kt aus Nord
Sichtweite 10 km oder mehr
keine Wolken unter 1500 m und keine Kumulonimbus oder Gewitterwolken

TAF: EDVK 251100Z 2512/2521 01007KT CAVOK

Wetterbeobachtungen und Prognosen von mehr als 4000 Flughäfen (METAR und TAF Bericht).

Die verfügbaren Stationen werden durch gelbe und rote Markierungen auf der Karte dargestellt.

Führen Sie die Maus auf sie, um den Namen der Station zu sehen.

Darauf klicken, um die Beobachtung von Wetterbeobachtungen und Prognosen zu sehen.

Um die Karte zu ändern : klicken Sie auf den grünen Tasten mit einem schwarzen Kreuz Zum Vergrößern, auf den grünen Button mit einem Gedankenstrich zu verkleinern, oder auf die grünen Pfeile für benachbarte Karten.


METAR-TAF: